createdAt,value
2023-04-20T00:00:11.802Z,5.70
2023-04-20T00:02:45.534Z,5.18
2023-04-20T00:05:16.260Z,6.35
2023-04-20T00:07:48.807Z,5.50
2023-04-20T00:10:22.090Z,5.25
2023-04-20T00:12:52.420Z,5.20
2023-04-20T00:15:22.822Z,5.10
2023-04-20T00:17:55.746Z,5.57
2023-04-20T00:20:26.144Z,5.97
2023-04-20T00:22:56.440Z,5.60
2023-04-20T00:25:26.683Z,6.40
2023-04-20T00:27:56.964Z,6.25
2023-04-20T00:30:27.681Z,6.53
2023-04-20T00:33:00.584Z,5.88
2023-04-20T00:35:31.864Z,5.47
2023-04-20T00:38:02.512Z,5.63
2023-04-20T00:40:33.729Z,5.93
2023-04-20T00:43:12.759Z,5.25
2023-04-20T00:45:43.221Z,5.60
2023-04-20T00:48:17.052Z,5.93
2023-04-20T00:50:48.589Z,5.05
2023-04-20T00:53:19.702Z,6.05
2023-04-20T00:55:54.041Z,5.72
2023-04-20T00:58:24.754Z,5.13
2023-04-20T01:00:55.133Z,6.00
2023-04-20T01:03:28.523Z,5.82
2023-04-20T01:05:59.091Z,5.70
2023-04-20T01:08:30.326Z,5.75
2023-04-20T01:11:00.680Z,5.60
2023-04-20T01:13:31.062Z,5.82
2023-04-20T01:16:05.090Z,6.63
2023-04-20T01:21:19.544Z,5.68
2023-04-20T01:23:53.168Z,5.95
2023-04-20T01:26:25.012Z,6.20
2023-04-20T01:28:55.835Z,5.93
2023-04-20T01:31:26.124Z,5.60
2023-04-20T01:33:56.315Z,5.50
2023-04-20T01:36:27.406Z,5.45
2023-04-20T01:39:00.309Z,6.10
2023-04-20T01:41:30.684Z,5.80
2023-04-20T01:44:02.123Z,6.68
2023-04-20T01:46:32.497Z,5.72
2023-04-20T01:49:03.300Z,5.68
2023-04-20T01:51:38.250Z,6.13
2023-04-20T01:54:11.108Z,6.47
2023-04-20T01:56:41.363Z,5.75
2023-04-20T01:59:14.681Z,5.72
2023-04-20T02:01:45.401Z,6.28
2023-04-20T02:04:15.904Z,5.70
2023-04-20T02:06:46.204Z,5.32
2023-04-20T02:09:19.486Z,5.78
2023-04-20T02:11:50.090Z,6.03
2023-04-20T02:14:20.362Z,6.03
2023-04-20T02:16:50.830Z,6.15
2023-04-20T02:19:21.510Z,5.68
2023-04-20T02:21:54.486Z,6.03
2023-04-20T02:24:27.466Z,6.30
2023-04-20T02:26:57.737Z,5.50
2023-04-20T02:29:28.141Z,5.82
2023-04-20T02:31:58.675Z,5.72
2023-04-20T02:34:29.037Z,6.55
2023-04-20T02:36:59.280Z,6.05
2023-04-20T02:39:32.321Z,6.35
2023-04-20T02:42:03.060Z,5.32
2023-04-20T02:44:33.280Z,6.10
2023-04-20T02:47:03.455Z,5.47
2023-04-20T02:49:33.754Z,6.18
2023-04-20T02:52:04.834Z,5.93
2023-04-20T02:54:37.728Z,6.80
2023-04-20T02:57:08.006Z,6.85
2023-04-20T02:59:38.303Z,6.03
2023-04-20T03:02:08.837Z,6.80
2023-04-20T03:04:39.578Z,6.60
2023-04-20T03:07:10.397Z,6.88
2023-04-20T03:09:43.385Z,7.15
2023-04-20T03:12:13.792Z,6.47
2023-04-20T03:14:44.025Z,6.55
2023-04-20T03:17:14.307Z,7.22
2023-04-20T03:19:44.667Z,8.02
2023-04-20T03:22:15.045Z,8.50
2023-04-20T03:24:48.237Z,7.32
2023-04-20T03:27:18.508Z,7.10
2023-04-20T03:29:49.105Z,6.97
2023-04-20T03:32:19.480Z,6.10
2023-04-20T03:34:57.049Z,6.68
2023-04-20T03:37:27.377Z,7.13
2023-04-20T03:40:00.624Z,8.10
2023-04-20T03:42:30.910Z,8.25
2023-04-20T03:45:01.523Z,8.27
2023-04-20T03:47:31.860Z,9.05
2023-04-20T03:50:02.191Z,7.70
2023-04-20T03:52:32.738Z,7.63
2023-04-20T03:55:05.658Z,6.53
2023-04-20T03:57:36.711Z,5.80
2023-04-20T04:00:07.973Z,5.85
2023-04-20T04:02:38.787Z,6.60
2023-04-20T04:05:10.451Z,6.10
2023-04-20T04:07:40.844Z,6.53
2023-04-20T04:10:17.067Z,7.55
2023-04-20T04:12:47.882Z,6.82
2023-04-20T04:15:19.467Z,5.88
2023-04-20T04:17:49.891Z,6.15
2023-04-20T04:20:20.221Z,6.60
2023-04-20T04:22:52.318Z,7.10
2023-04-20T04:25:25.557Z,6.63
2023-04-20T04:27:55.883Z,7.55
2023-04-20T04:30:26.434Z,7.00
2023-04-20T04:32:57.056Z,6.45
2023-04-20T04:35:30.711Z,6.45
2023-04-20T04:38:01.246Z,6.97
2023-04-20T04:40:34.210Z,8.35
2023-04-20T04:43:05.099Z,7.45
2023-04-20T04:45:35.368Z,8.20
2023-04-20T04:48:08.062Z,7.38
2023-04-20T04:50:39.274Z,7.40
2023-04-20T04:53:09.550Z,8.18
2023-04-20T04:55:42.402Z,8.25
2023-04-20T04:58:14.961Z,8.02
2023-04-20T05:00:45.256Z,7.40
2023-04-20T05:03:16.345Z,7.65
2023-04-20T05:05:47.199Z,7.90
2023-04-20T05:08:17.488Z,7.32
2023-04-20T05:10:50.731Z,7.00
2023-04-20T05:13:21.287Z,7.17
2023-04-20T05:15:51.555Z,7.35
2023-04-20T05:18:24.680Z,6.18
2023-04-20T05:20:55.398Z,7.10
2023-04-20T05:23:25.779Z,6.22
2023-04-20T05:25:58.640Z,6.40
2023-04-20T05:28:28.998Z,5.82
2023-04-20T05:30:59.300Z,5.70
2023-04-20T05:33:29.946Z,5.43
2023-04-20T05:36:00.942Z,5.60
2023-04-20T05:38:31.339Z,5.68
2023-04-20T05:41:04.980Z,6.13
2023-04-20T05:43:35.385Z,6.07
2023-04-20T05:46:05.706Z,5.68
2023-04-20T05:48:36.134Z,5.43
2023-04-20T05:51:06.478Z,5.38
2023-04-20T05:53:36.753Z,5.10
2023-04-20T05:56:10.912Z,6.03
2023-04-20T05:58:41.559Z,4.97
2023-04-20T06:01:11.833Z,5.35
2023-04-20T06:03:42.643Z,5.00
2023-04-20T06:06:14.887Z,5.43
2023-04-20T06:08:46.770Z,5.93
2023-04-20T06:11:19.646Z,5.03
2023-04-20T06:13:49.930Z,5.05
2023-04-20T06:16:22.762Z,4.25
2023-04-20T06:18:53.169Z,4.35
2023-04-20T06:21:24.789Z,4.40
2023-04-20T06:23:55.141Z,4.28
2023-04-20T06:26:28.118Z,3.13
2023-04-20T06:28:58.345Z,3.43
2023-04-20T06:31:28.618Z,3.80
2023-04-20T06:33:59.418Z,3.70
2023-04-20T06:36:30.075Z,4.13
2023-04-20T06:39:00.544Z,3.30
2023-04-20T06:41:33.648Z,3.75
2023-04-20T06:44:03.971Z,3.07
2023-04-20T06:46:34.392Z,2.72
2023-04-20T06:49:07.254Z,3.83
2023-04-20T06:51:37.570Z,2.67
2023-04-20T06:54:08.504Z,2.83
2023-04-20T06:56:41.324Z,2.78
2023-04-20T06:59:11.705Z,2.85
2023-04-20T07:01:42.292Z,2.90
2023-04-20T07:04:12.768Z,3.13
2023-04-20T07:06:43.119Z,2.92
2023-04-20T07:09:13.385Z,3.47
2023-04-20T07:11:49.220Z,2.97
2023-04-20T07:17:43.449Z,2.35
2023-04-20T07:20:14.349Z,2.85
2023-04-20T07:22:44.838Z,2.67
2023-04-20T07:25:18.221Z,2.88
2023-04-20T07:27:51.136Z,3.15
2023-04-20T07:30:23.533Z,2.57
2023-04-20T07:32:54.036Z,2.78
2023-04-20T07:35:25.049Z,3.03
2023-04-20T07:37:55.955Z,2.72
2023-04-20T07:40:26.730Z,3.50
2023-04-20T07:42:59.862Z,3.13
2023-04-20T07:45:30.569Z,3.10
2023-04-20T07:48:01.764Z,2.67
2023-04-20T07:50:32.193Z,2.47
2023-04-20T07:53:02.500Z,3.15
2023-04-20T07:55:33.295Z,2.95
2023-04-20T07:58:06.347Z,2.70
2023-04-20T08:00:36.704Z,2.97
2023-04-20T08:03:08.473Z,3.28
2023-04-20T08:05:40.993Z,2.70
2023-04-20T08:08:11.327Z,2.72
2023-04-20T08:10:41.626Z,1.83
2023-04-20T08:13:15.482Z,2.95
2023-04-20T08:15:46.101Z,2.58
2023-04-20T08:18:16.369Z,1.63
2023-04-20T08:20:46.669Z,2.47
2023-04-20T08:23:19.262Z,2.35
2023-04-20T08:25:52.332Z,2.35
2023-04-20T08:28:33.313Z,2.40
2023-04-20T08:31:04.602Z,2.15
2023-04-20T08:33:34.882Z,2.05
2023-04-20T08:36:05.243Z,2.33
2023-04-20T08:38:37.900Z,2.22
2023-04-20T08:41:08.667Z,2.67
2023-04-20T08:43:41.884Z,2.00
2023-04-20T08:46:12.773Z,2.77
2023-04-20T08:48:48.763Z,2.00
2023-04-20T08:51:20.344Z,2.67
2023-04-20T08:53:50.981Z,2.20
2023-04-20T08:56:21.481Z,1.35
2023-04-20T08:58:54.754Z,2.30
2023-04-20T09:01:35.682Z,2.17
2023-04-20T09:04:19.817Z,3.55
2023-04-20T09:06:52.145Z,2.90
2023-04-20T09:09:23.838Z,2.50
2023-04-20T09:12:07.541Z,2.50
2023-04-20T09:14:49.103Z,2.88
2023-04-20T09:17:20.557Z,2.65
2023-04-20T09:19:56.690Z,3.20
2023-04-20T09:22:33.055Z,2.75
2023-04-20T09:25:14.850Z,2.45
2023-04-20T09:27:45.134Z,2.78
2023-04-20T09:30:18.474Z,3.05
2023-04-20T09:32:50.436Z,3.65
2023-04-20T09:35:26.154Z,2.50
2023-04-20T09:37:57.051Z,3.10
2023-04-20T09:40:28.686Z,3.40
2023-04-20T09:43:03.273Z,2.95
2023-04-20T09:45:36.970Z,3.15
2023-04-20T09:50:48.361Z,2.95
2023-04-20T09:53:21.085Z,2.85
2023-04-20T09:55:52.712Z,3.10
2023-04-20T09:58:24.011Z,2.72
2023-04-20T10:00:57.440Z,3.28
2023-04-20T10:03:29.001Z,3.38
2023-04-20T10:05:59.704Z,3.33
2023-04-20T10:08:30.144Z,3.13
2023-04-20T10:11:00.587Z,3.78
2023-04-20T10:13:36.544Z,3.20
2023-04-20T10:16:21.150Z,2.90
2023-04-20T10:19:02.966Z,3.45
2023-04-20T10:21:33.578Z,3.42
2023-04-20T10:24:04.469Z,2.70
2023-04-20T10:26:41.319Z,3.28
2023-04-20T10:29:12.730Z,3.35
2023-04-20T10:31:46.043Z,3.28
2023-04-20T10:34:16.684Z,2.78
2023-04-20T10:36:47.142Z,2.97
2023-04-20T10:39:20.017Z,3.00
2023-04-20T10:41:58.718Z,2.97
2023-04-20T10:44:29.603Z,3.40
2023-04-20T10:47:02.812Z,3.80
2023-04-20T10:49:33.614Z,2.65
2023-04-20T10:52:03.981Z,2.78
2023-04-20T10:54:40.781Z,3.63
2023-04-20T10:57:11.094Z,3.40
2023-04-20T10:59:42.374Z,3.00
2023-04-20T11:02:18.069Z,2.70
2023-04-20T11:04:48.866Z,2.63
2023-04-20T11:07:20.432Z,2.90
2023-04-20T11:09:56.941Z,3.38
2023-04-20T11:12:27.318Z,3.08
2023-04-20T11:15:03.317Z,3.55
2023-04-20T11:17:41.164Z,3.20
2023-04-20T11:20:15.896Z,3.22
2023-04-20T11:22:47.465Z,3.30
2023-04-20T11:25:17.727Z,3.80
2023-04-20T11:27:48.049Z,3.08
2023-04-20T11:30:21.405Z,3.13
2023-04-20T11:32:59.263Z,3.05
2023-04-20T11:35:29.669Z,3.67
2023-04-20T11:38:01.040Z,3.70
2023-04-20T11:40:32.712Z,3.75
2023-04-20T11:43:05.028Z,3.78
2023-04-20T11:45:36.979Z,3.20
2023-04-20T11:48:13.093Z,2.55
2023-04-20T11:50:43.476Z,3.00
2023-04-20T11:53:15.011Z,3.13
2023-04-20T11:55:45.296Z,2.92
2023-04-20T11:58:15.852Z,3.30
2023-04-20T12:00:46.136Z,3.30
2023-04-20T12:03:19.476Z,3.20
2023-04-20T12:05:51.604Z,3.60
2023-04-20T12:08:22.028Z,3.03
2023-04-20T12:10:57.362Z,3.38
2023-04-20T12:13:29.055Z,3.25
2023-04-20T12:15:59.397Z,2.95
2023-04-20T12:18:35.295Z,3.67
2023-04-20T12:21:05.999Z,3.20
2023-04-20T12:23:37.126Z,3.30
2023-04-20T12:26:07.764Z,3.22
2023-04-20T12:28:38.501Z,3.20
2023-04-20T12:31:08.918Z,3.70
2023-04-20T12:33:41.850Z,3.75
2023-04-20T12:36:12.573Z,3.43
2023-04-20T12:38:42.873Z,3.67
2023-04-20T12:41:17.652Z,4.50
2023-04-20T12:43:50.301Z,4.40
2023-04-20T12:46:21.005Z,5.30
2023-04-20T12:48:53.845Z,5.00
2023-04-20T12:51:27.402Z,3.73
2023-04-20T12:53:57.662Z,5.43
2023-04-20T12:56:28.068Z,3.50
2023-04-20T12:58:58.540Z,4.20
2023-04-20T13:01:28.857Z,4.10
2023-04-20T13:04:01.932Z,3.45
2023-04-20T13:06:32.958Z,4.15
2023-04-20T13:09:04.271Z,3.38
2023-04-20T13:11:34.538Z,3.80
2023-04-20T13:14:05.235Z,3.72
2023-04-20T13:16:35.652Z,3.70
2023-04-20T13:19:08.537Z,3.60
2023-04-20T13:21:39.001Z,4.10
2023-04-20T13:24:09.901Z,3.90
2023-04-20T13:26:42.347Z,3.50
2023-04-20T13:29:12.611Z,3.58
2023-04-20T13:31:43.552Z,4.03
2023-04-20T13:34:16.593Z,3.90
2023-04-20T13:36:47.245Z,3.67
2023-04-20T13:39:20.274Z,3.90
2023-04-20T13:41:51.944Z,4.78
2023-04-20T13:44:22.298Z,3.38
2023-04-20T13:46:52.697Z,4.00
2023-04-20T13:49:25.534Z,3.35
2023-04-20T13:51:56.889Z,3.50
2023-04-20T13:54:27.117Z,3.13
2023-04-20T13:56:58.131Z,3.35
2023-04-20T13:59:28.758Z,3.20
2023-04-20T14:01:59.039Z,3.83
2023-04-20T14:04:32.001Z,2.97
2023-04-20T14:07:02.278Z,5.10
2023-04-20T14:09:34.150Z,3.15
2023-04-20T14:12:04.508Z,3.30
2023-04-20T14:14:34.735Z,3.35
2023-04-20T14:17:05.159Z,4.15
2023-04-20T14:19:38.042Z,3.45
2023-04-20T14:22:08.416Z,3.83
2023-04-20T14:24:38.639Z,4.75
2023-04-20T14:27:08.963Z,5.18
2023-04-20T14:29:39.341Z,3.80
2023-04-20T14:32:09.745Z,4.25
2023-04-20T14:34:42.611Z,3.28
2023-04-20T14:37:12.907Z,3.97
2023-04-20T14:39:43.254Z,2.88
2023-04-20T14:42:14.485Z,3.08
2023-04-20T14:44:48.078Z,3.22
2023-04-20T14:47:18.473Z,3.17
2023-04-20T14:49:51.484Z,3.38
2023-04-20T14:52:21.998Z,3.90
2023-04-20T14:54:52.422Z,4.10
2023-04-20T14:57:22.977Z,3.15
2023-04-20T14:59:53.459Z,3.70
2023-04-20T15:02:23.982Z,4.13
2023-04-20T15:05:01.202Z,4.07
2023-04-20T15:07:31.756Z,3.50
2023-04-20T15:10:02.994Z,3.50
2023-04-20T15:12:33.496Z,3.97
2023-04-20T15:15:03.825Z,3.80
2023-04-20T15:17:34.297Z,4.03
2023-04-20T15:20:08.864Z,4.55
2023-04-20T15:22:40.139Z,3.97
2023-04-20T15:25:11.654Z,4.05
2023-04-20T15:27:46.958Z,4.97
2023-04-20T15:30:17.681Z,4.25
2023-04-20T15:32:48.225Z,3.95
2023-04-20T15:35:21.296Z,3.95
2023-04-20T15:37:51.562Z,3.97
2023-04-20T15:40:22.197Z,3.58
2023-04-20T15:42:52.896Z,3.65
2023-04-20T15:45:23.190Z,3.83
2023-04-20T15:47:54.035Z,3.97
2023-04-20T15:50:27.440Z,3.47
2023-04-20T15:52:57.883Z,3.78
2023-04-20T15:55:34.769Z,4.30
2023-04-20T15:58:05.053Z,3.22
2023-04-20T16:00:35.572Z,3.33
2023-04-20T16:03:08.732Z,3.35
2023-04-20T16:05:41.827Z,2.47
2023-04-20T16:08:13.350Z,2.67
2023-04-20T16:10:44.008Z,2.60
2023-04-20T16:13:14.530Z,2.05
2023-04-20T16:15:45.120Z,2.78
2023-04-20T16:18:27.367Z,2.38
2023-04-20T16:21:00.492Z,3.13
2023-04-20T16:23:31.774Z,3.17
2023-04-20T16:26:02.326Z,2.63
2023-04-20T16:28:33.446Z,2.80
2023-04-20T16:31:04.051Z,2.60
2023-04-20T16:33:34.882Z,3.50
2023-04-20T16:36:08.569Z,2.75
2023-04-20T16:41:10.833Z,2.78
2023-04-20T16:43:41.323Z,3.08
2023-04-20T16:46:16.698Z,2.78
2023-04-20T16:48:47.087Z,3.03
2023-04-20T16:51:20.107Z,3.08
2023-04-20T16:53:50.418Z,3.90
2023-04-20T16:56:22.199Z,3.50
2023-04-20T16:58:52.782Z,3.95
2023-04-20T17:01:23.495Z,3.28
2023-04-20T17:03:54.092Z,2.85
2023-04-20T17:06:27.758Z,3.92
2023-04-20T17:09:05.547Z,4.60
2023-04-20T17:11:40.716Z,3.80
2023-04-20T17:14:13.689Z,3.58
2023-04-20T17:16:44.133Z,3.30
2023-04-20T17:19:14.515Z,3.30
2023-04-20T17:21:47.678Z,3.42
2023-04-20T17:24:21.266Z,3.57
2023-04-20T17:26:52.431Z,3.28
2023-04-20T17:29:22.775Z,2.95
2023-04-20T17:31:53.185Z,3.33
2023-04-20T17:34:24.044Z,2.97
2023-04-20T17:36:59.968Z,4.00
2023-04-20T17:39:30.452Z,3.60
2023-04-20T17:42:01.664Z,3.35
2023-04-20T17:44:31.929Z,3.83
2023-04-20T17:47:21.629Z,3.05
2023-04-20T17:49:52.267Z,4.25
2023-04-20T17:52:27.178Z,2.78
2023-04-20T17:54:57.847Z,2.63
2023-04-20T17:57:28.134Z,2.40
2023-04-20T17:59:58.515Z,2.28
2023-04-20T18:02:29.081Z,2.97
2023-04-20T18:05:01.163Z,2.40
2023-04-20T18:07:34.252Z,2.75
2023-04-20T18:10:05.024Z,2.50
2023-04-20T18:12:35.457Z,2.97
2023-04-20T18:15:08.082Z,3.30
2023-04-20T18:17:41.059Z,2.88
2023-04-20T18:20:12.268Z,2.30
2023-04-20T18:22:50.534Z,2.78
2023-04-20T18:25:24.590Z,2.28
2023-04-20T18:30:25.094Z,2.55
2023-04-20T18:32:55.465Z,2.97
2023-04-20T18:35:28.812Z,2.33
2023-04-20T18:38:01.775Z,3.08
2023-04-20T18:40:32.670Z,2.78
2023-04-20T18:43:03.142Z,2.40
2023-04-20T18:45:34.344Z,2.65
2023-04-20T18:48:06.896Z,2.53
2023-04-20T18:50:37.844Z,2.63
2023-04-20T18:53:10.778Z,2.55
2023-04-20T18:55:43.065Z,2.20
2023-04-20T18:58:13.314Z,2.17
2023-04-20T19:00:49.684Z,3.67
2023-04-20T19:03:20.449Z,2.10
2023-04-20T19:05:53.199Z,2.22
2023-04-20T19:08:28.022Z,2.10
2023-04-20T19:10:59.281Z,2.80
2023-04-20T19:13:29.810Z,2.05
2023-04-20T19:16:01.222Z,1.88
2023-04-20T19:18:31.565Z,2.55
2023-04-20T19:21:04.117Z,2.28
2023-04-20T19:23:37.588Z,2.13
2023-04-20T19:26:07.956Z,2.13
2023-04-20T19:28:38.363Z,2.05
2023-04-20T19:31:09.645Z,2.25
2023-04-20T19:33:40.384Z,2.30
2023-04-20T19:36:10.834Z,1.90
2023-04-20T19:38:43.820Z,2.13
2023-04-20T19:41:14.170Z,2.33
2023-04-20T19:43:44.436Z,2.35
2023-04-20T19:46:16.854Z,2.00
2023-04-20T19:48:47.409Z,2.03
2023-04-20T19:51:19.414Z,2.30
2023-04-20T19:53:52.353Z,2.30
2023-04-20T19:56:22.674Z,1.85
2023-04-20T19:58:53.384Z,2.65
2023-04-20T20:01:26.434Z,2.67
2023-04-20T20:06:27.989Z,2.25
2023-04-20T20:09:01.121Z,2.30
2023-04-20T20:11:31.793Z,2.47
2023-04-20T20:14:02.134Z,2.13
2023-04-20T20:16:32.425Z,2.35
2023-04-20T20:19:02.753Z,2.33
2023-04-20T20:21:32.996Z,2.15
2023-04-20T20:24:06.097Z,2.38
2023-04-20T20:26:39.010Z,2.60
2023-04-20T20:29:09.478Z,2.73
2023-04-20T20:31:39.813Z,2.80
2023-04-20T20:34:10.186Z,2.90
2023-04-20T20:36:42.744Z,4.80
2023-04-20T20:39:16.186Z,2.88
2023-04-20T20:41:46.760Z,2.33
2023-04-20T20:44:18.039Z,2.83
2023-04-20T20:46:48.789Z,2.40
2023-04-20T20:49:19.374Z,2.42
2023-04-20T20:51:49.807Z,2.20
2023-04-20T20:54:22.865Z,2.22
2023-04-20T20:56:53.186Z,2.50
2023-04-20T20:59:26.236Z,2.50
2023-04-20T21:01:56.883Z,3.42
2023-04-20T21:04:27.524Z,2.60
2023-04-20T21:06:57.850Z,3.30
2023-04-20T21:09:30.721Z,4.45
2023-04-20T21:12:01.479Z,4.27
2023-04-20T21:14:31.732Z,3.70
2023-04-20T21:17:02.308Z,3.63
2023-04-20T21:19:32.674Z,3.65
2023-04-20T21:22:02.906Z,3.47
2023-04-20T21:24:35.786Z,3.65
2023-04-20T21:27:06.116Z,3.45
2023-04-20T21:29:36.425Z,3.40
2023-04-20T21:32:07.437Z,3.60
2023-04-20T21:34:37.769Z,3.58
2023-04-20T21:37:11.314Z,3.22
2023-04-20T21:39:44.275Z,3.47
2023-04-20T21:42:14.622Z,3.38
2023-04-20T21:44:45.002Z,3.28
2023-04-20T21:47:15.260Z,3.63
2023-04-20T21:49:45.650Z,2.85
2023-04-20T21:52:15.895Z,2.85
2023-04-20T21:54:49.108Z,3.55
2023-04-20T21:57:19.410Z,3.10
2023-04-20T21:59:49.683Z,3.17
2023-04-20T22:02:20.225Z,2.92
2023-04-20T22:04:51.253Z,3.67
2023-04-20T22:07:24.175Z,3.47
2023-04-20T22:09:57.108Z,3.88
2023-04-20T22:12:39.292Z,3.45
2023-04-20T22:15:15.304Z,3.47
2023-04-20T22:17:48.175Z,4.05
2023-04-20T22:20:20.089Z,3.50
2023-04-20T22:22:50.534Z,3.47
2023-04-20T22:25:24.831Z,3.67
2023-04-20T22:27:55.681Z,3.50
2023-04-20T22:30:26.427Z,3.85
2023-04-20T22:32:56.946Z,3.83
2023-04-20T22:35:27.243Z,3.80
2023-04-20T22:37:57.492Z,4.03
2023-04-20T22:40:30.710Z,4.45
2023-04-20T22:43:00.989Z,3.83
2023-04-20T22:45:31.578Z,4.10
2023-04-20T22:48:01.874Z,3.53
2023-04-20T22:50:32.169Z,3.78
2023-04-20T22:53:02.414Z,5.60
2023-04-20T22:55:35.342Z,4.20
2023-04-20T22:58:05.549Z,3.60
2023-04-20T23:00:36.048Z,4.38
2023-04-20T23:03:06.500Z,3.75
2023-04-20T23:05:37.005Z,3.85
2023-04-20T23:08:07.382Z,4.20
2023-04-20T23:10:41.086Z,4.00
2023-04-20T23:13:17.055Z,3.97
2023-04-20T23:15:47.347Z,3.33
2023-04-20T23:18:17.690Z,3.35
2023-04-20T23:20:48.001Z,3.78
2023-04-20T23:23:18.328Z,4.22
2023-04-20T23:25:51.285Z,4.85
2023-04-20T23:28:21.787Z,3.13
2023-04-20T23:30:55.113Z,2.90
2023-04-20T23:33:25.540Z,3.53
2023-04-20T23:35:55.919Z,4.30
2023-04-20T23:38:29.072Z,3.72
2023-04-20T23:41:04.969Z,3.90
2023-04-20T23:43:35.218Z,3.83
2023-04-20T23:46:05.916Z,4.10
2023-04-20T23:48:36.978Z,5.00
2023-04-20T23:51:08.034Z,3.97
2023-04-20T23:53:39.373Z,3.50
2023-04-20T23:56:12.722Z,3.75
2023-04-20T23:58:43.045Z,3.47
